sensor_id;sensor_type;location;lat;lon;timestamp;pressure;altitude;pressure_sealevel;temperature;humidity
5126;BME280;63008;53.112;8.896;2023-07-02T00:01:17;100315.56;;;16.36;94.20
5126;BME280;63008;53.112;8.896;2023-07-02T00:03:18;100325.88;;;16.35;94.00
5126;BME280;63008;53.112;8.896;2023-07-02T00:05:22;100316.31;;;16.33;93.96
5126;BME280;63008;53.112;8.896;2023-07-02T00:07:23;100317.09;;;16.30;94.23
5126;BME280;63008;53.112;8.896;2023-07-02T00:09:26;100315.53;;;16.32;93.89
5126;BME280;63008;53.112;8.896;2023-07-02T00:11:27;100312.31;;;16.27;94.13
5126;BME280;63008;53.112;8.896;2023-07-02T00:13:28;100305.56;;;16.21;94.57
5126;BME280;63008;53.112;8.896;2023-07-02T00:15:29;100302.75;;;16.17;95.04
5126;BME280;63008;53.112;8.896;2023-07-02T00:17:30;100311.00;;;16.14;95.00
5126;BME280;63008;53.112;8.896;2023-07-02T00:19:31;100300.72;;;16.14;94.86
5126;BME280;63008;53.112;8.896;2023-07-02T00:21:32;100311.41;;;16.16;95.00
5126;BME280;63008;53.112;8.896;2023-07-02T00:23:33;100315.00;;;16.16;94.75
5126;BME280;63008;53.112;8.896;2023-07-02T00:25:34;100312.59;;;16.15;95.25
5126;BME280;63008;53.112;8.896;2023-07-02T00:27:35;100315.00;;;16.16;94.93
5126;BME280;63008;53.112;8.896;2023-07-02T00:29:38;100312.63;;;16.18;94.89
5126;BME280;63008;53.112;8.896;2023-07-02T00:31:39;100318.22;;;16.22;94.61
5126;BME280;63008;53.112;8.896;2023-07-02T00:33:39;100313.09;;;16.24;94.48
5126;BME280;63008;53.112;8.896;2023-07-02T00:35:40;100314.69;;;16.25;93.93
5126;BME280;63008;53.112;8.896;2023-07-02T00:37:41;100317.44;;;16.25;94.14
5126;BME280;63008;53.112;8.896;2023-07-02T00:39:42;100318.63;;;16.27;93.84
5126;BME280;63008;53.112;8.896;2023-07-02T00:41:44;100319.09;;;16.33;93.45
5126;BME280;63008;53.112;8.896;2023-07-02T00:43:46;100315.94;;;16.34;93.18
5126;BME280;63008;53.112;8.896;2023-07-02T00:45:47;100314.00;;;16.35;92.88
5126;BME280;63008;53.112;8.896;2023-07-02T00:47:48;100306.06;;;16.33;93.07
5126;BME280;63008;53.112;8.896;2023-07-02T00:49:50;100305.31;;;16.36;92.83
5126;BME280;63008;53.112;8.896;2023-07-02T00:51:51;100300.53;;;16.37;92.47
5126;BME280;63008;53.112;8.896;2023-07-02T00:53:54;100308.53;;;16.42;92.03
5126;BME280;63008;53.112;8.896;2023-07-02T00:55:55;100302.59;;;16.43;92.13
5126;BME280;63008;53.112;8.896;2023-07-02T00:57:56;100304.56;;;16.43;91.94
5126;BME280;63008;53.112;8.896;2023-07-02T00:59:58;100294.75;;;16.52;91.31
5126;BME280;63008;53.112;8.896;2023-07-02T01:02:01;100301.06;;;16.49;91.32
5126;BME280;63008;53.112;8.896;2023-07-02T01:04:04;100305.81;;;16.49;91.13
5126;BME280;63008;53.112;8.896;2023-07-02T01:06:05;100302.66;;;16.50;91.00
5126;BME280;63008;53.112;8.896;2023-07-02T01:08:07;100299.06;;;16.50;90.90
5126;BME280;63008;53.112;8.896;2023-07-02T01:10:08;100308.97;;;16.51;90.80
5126;BME280;63008;53.112;8.896;2023-07-02T01:12:09;100298.72;;;16.54;90.33
5126;BME280;63008;53.112;8.896;2023-07-02T01:14:15;100301.88;;;16.53;90.54
5126;BME280;63008;53.112;8.896;2023-07-02T01:16:17;100304.25;;;16.54;90.36
5126;BME280;63008;53.112;8.896;2023-07-02T01:18:19;100303.47;;;16.54;90.45
5126;BME280;63008;53.112;8.896;2023-07-02T01:20:20;100304.28;;;16.58;90.24
5126;BME280;63008;53.112;8.896;2023-07-02T01:22:24;100299.16;;;16.57;90.10
5126;BME280;63008;53.112;8.896;2023-07-02T01:24:25;100300.34;;;16.56;90.18
5126;BME280;63008;53.112;8.896;2023-07-02T01:26:32;100306.69;;;16.59;89.89
5126;BME280;63008;53.112;8.896;2023-07-02T01:28:35;100302.34;;;16.62;89.68
5126;BME280;63008;53.112;8.896;2023-07-02T01:30:37;100298.34;;;16.56;90.10
5126;BME280;63008;53.112;8.896;2023-07-02T01:32:38;100299.53;;;16.55;89.76
5126;BME280;63008;53.112;8.896;2023-07-02T01:34:39;100305.09;;;16.58;89.70
5126;BME280;63008;53.112;8.896;2023-07-02T01:36:41;100299.94;;;16.57;89.62
5126;BME280;63008;53.112;8.896;2023-07-02T01:38:42;100313.41;;;16.58;89.03
5126;BME280;63008;53.112;8.896;2023-07-02T01:40:43;100301.94;;;16.60;89.01
5126;BME280;63008;53.112;8.896;2023-07-02T01:42:44;100309.41;;;16.56;88.98
5126;BME280;63008;53.112;8.896;2023-07-02T01:44:48;100314.59;;;16.61;88.80
5126;BME280;63008;53.112;8.896;2023-07-02T01:46:49;100309.47;;;16.63;87.76
5126;BME280;63008;53.112;8.896;2023-07-02T01:48:50;100313.81;;;16.60;87.64
5126;BME280;63008;53.112;8.896;2023-07-02T01:50:51;100312.63;;;16.61;87.65
5126;BME280;63008;53.112;8.896;2023-07-02T01:52:52;100311.81;;;16.61;87.75
5126;BME280;63008;53.112;8.896;2023-07-02T01:54:53;100314.97;;;16.56;87.79
5126;BME280;63008;53.112;8.896;2023-07-02T01:56:55;100321.69;;;16.55;87.92
5126;BME280;63008;53.112;8.896;2023-07-02T01:58:56;100317.69;;;16.52;88.07
5126;BME280;63008;53.112;8.896;2023-07-02T02:00:57;100319.28;;;16.53;87.86
5126;BME280;63008;53.112;8.896;2023-07-02T02:02:58;100323.25;;;16.52;87.76
5126;BME280;63008;53.112;8.896;2023-07-02T02:04:59;100322.88;;;16.54;87.09
5126;BME280;63008;53.112;8.896;2023-07-02T02:07:00;100327.59;;;16.53;87.08
5126;BME280;63008;53.112;8.896;2023-07-02T02:09:01;100323.25;;;16.52;87.18
5126;BME280;63008;53.112;8.896;2023-07-02T02:11:04;100324.78;;;16.47;87.38
5126;BME280;63008;53.112;8.896;2023-07-02T02:13:05;100329.50;;;16.46;87.54
5126;BME280;63008;53.112;8.896;2023-07-02T02:15:06;100319.25;;;16.47;86.48
5126;BME280;63008;53.112;8.896;2023-07-02T02:17:07;100324.75;;;16.43;86.86
5126;BME280;63008;53.112;8.896;2023-07-02T02:19:08;100323.50;;;16.37;86.81
5126;BME280;63008;53.112;8.896;2023-07-02T02:21:09;100328.22;;;16.33;87.15
5126;BME280;63008;53.112;8.896;2023-07-02T02:23:10;100332.56;;;16.34;86.51
5126;BME280;63008;53.112;8.896;2023-07-02T02:25:11;100325.81;;;16.32;86.09
5126;BME280;63008;53.112;8.896;2023-07-02T02:27:12;100322.66;;;16.33;85.33
5126;BME280;63008;53.112;8.896;2023-07-02T02:29:13;100329.38;;;16.32;85.36
5126;BME280;63008;53.112;8.896;2023-07-02T02:31:15;100330.56;;;16.31;84.75
5126;BME280;63008;53.112;8.896;2023-07-02T02:33:16;100333.66;;;16.26;85.15
5126;BME280;63008;53.112;8.896;2023-07-02T02:35:16;100331.63;;;16.20;85.45
5126;BME280;63008;53.112;8.896;2023-07-02T02:37:18;100339.50;;;16.18;85.53
5126;BME280;63008;53.112;8.896;2023-07-02T02:39:19;100341.03;;;16.12;85.49
5126;BME280;63008;53.112;8.896;2023-07-02T02:41:20;100343.41;;;16.10;85.56
5126;BME280;63008;53.112;8.896;2023-07-02T02:43:21;100344.22;;;16.14;85.05
5126;BME280;63008;53.112;8.896;2023-07-02T02:45:23;100342.63;;;16.13;85.41
5126;BME280;63008;53.112;8.896;2023-07-02T02:47:24;100340.63;;;16.10;85.60
5126;BME280;63008;53.112;8.896;2023-07-02T02:49:27;100338.66;;;16.10;85.33
5126;BME280;63008;53.112;8.896;2023-07-02T02:51:28;100340.63;;;16.10;85.74
5126;BME280;63008;53.112;8.896;2023-07-02T02:53:29;100331.50;;;16.06;86.05
5126;BME280;63008;53.112;8.896;2023-07-02T02:55:30;100317.66;;;16.06;85.99
5126;BME280;63008;53.112;8.896;2023-07-02T02:57:31;100322.81;;;16.07;85.71
5126;BME280;63008;53.112;8.896;2023-07-02T02:59:32;100318.06;;;16.08;85.80
5126;BME280;63008;53.112;8.896;2023-07-02T03:01:33;100315.66;;;16.06;85.88
5126;BME280;63008;53.112;8.896;2023-07-02T03:03:34;100317.25;;;16.04;85.84
5126;BME280;63008;53.112;8.896;2023-07-02T03:05:39;100324.75;;;16.03;85.69
5126;BME280;63008;53.112;8.896;2023-07-02T03:07:40;100326.72;;;16.03;85.38
5126;BME280;63008;53.112;8.896;2023-07-02T03:09:41;100338.22;;;16.05;85.67
5126;BME280;63008;53.112;8.896;2023-07-02T03:11:42;100333.41;;;16.02;85.60
5126;BME280;63008;53.112;8.896;2023-07-02T03:13:43;100350.84;;;16.02;85.98
5126;BME280;63008;53.112;8.896;2023-07-02T03:15:44;100341.00;;;16.05;85.85
5126;BME280;63008;53.112;8.896;2023-07-02T03:17:45;100341.72;;;15.98;86.38
5126;BME280;63008;53.112;8.896;2023-07-02T03:19:47;100340.88;;;15.94;86.61
5126;BME280;63008;53.112;8.896;2023-07-02T03:21:48;100342.44;;;15.92;86.89
5126;BME280;63008;53.112;8.896;2023-07-02T03:23:48;100348.31;;;15.90;87.02
5126;BME280;63008;53.112;8.896;2023-07-02T03:25:49;100337.97;;;15.84;87.38
5126;BME280;63008;53.112;8.896;2023-07-02T03:27:50;100342.34;;;15.85;87.32
5126;BME280;63008;53.112;8.896;2023-07-02T03:29:52;100342.34;;;15.85;87.34
5126;BME280;63008;53.112;8.896;2023-07-02T03:31:53;100344.31;;;15.84;87.28
5126;BME280;63008;53.112;8.896;2023-07-02T03:33:54;100345.50;;;15.83;86.85
5126;BME280;63008;53.112;8.896;2023-07-02T03:35:55;100356.94;;;15.82;86.97
5126;BME280;63008;53.112;8.896;2023-07-02T03:37:56;100350.22;;;15.83;86.77
5126;BME280;63008;53.112;8.896;2023-07-02T03:39:58;100352.16;;;15.79;87.34
5126;BME280;63008;53.112;8.896;2023-07-02T03:41:59;100346.63;;;15.79;87.12
5126;BME280;63008;53.112;8.896;2023-07-02T03:44:00;100350.97;;;15.80;86.76
5126;BME280;63008;53.112;8.896;2023-07-02T03:46:01;100344.66;;;15.79;86.48
5126;BME280;63008;53.112;8.896;2023-07-02T03:48:02;100352.91;;;15.76;87.04
5126;BME280;63008;53.112;8.896;2023-07-02T03:50:03;100351.69;;;15.73;86.84
5126;BME280;63008;53.112;8.896;2023-07-02T03:52:05;100357.63;;;15.72;86.94
5126;BME280;63008;53.112;8.896;2023-07-02T03:54:06;100342.94;;;15.68;87.21
5126;BME280;63008;53.112;8.896;2023-07-02T03:56:07;100340.56;;;15.66;87.48
5126;BME280;63008;53.112;8.896;2023-07-02T03:58:08;100351.63;;;15.66;87.32
5126;BME280;63008;53.112;8.896;2023-07-02T04:00:09;100350.84;;;15.69;86.77
5126;BME280;63008;53.112;8.896;2023-07-02T04:02:11;100357.97;;;15.70;86.53
5126;BME280;63008;53.112;8.896;2023-07-02T04:04:12;100349.25;;;15.68;86.59
5126;BME280;63008;53.112;8.896;2023-07-02T04:06:13;100351.66;;;15.70;86.36
5126;BME280;63008;53.112;8.896;2023-07-02T04:08:15;100354.50;;;15.77;85.61
5126;BME280;63008;53.112;8.896;2023-07-02T04:10:16;100352.09;;;15.72;86.08
5126;BME280;63008;53.112;8.896;2023-07-02T04:12:19;100360.38;;;15.72;86.11
5126;BME280;63008;53.112;8.896;2023-07-02T04:14:20;100361.16;;;15.72;85.72
5126;BME280;63008;53.112;8.896;2023-07-02T04:16:21;100361.97;;;15.73;85.94
5126;BME280;63008;53.112;8.896;2023-07-02T04:18:22;100360.38;;;15.72;86.27
5126;BME280;63008;53.112;8.896;2023-07-02T04:20:23;100367.09;;;15.71;86.05
5126;BME280;63008;53.112;8.896;2023-07-02T04:22:25;100369.97;;;15.81;85.79
5126;BME280;63008;53.112;8.896;2023-07-02T04:24:25;100370.34;;;15.80;85.61
5126;BME280;63008;53.112;8.896;2023-07-02T04:26:26;100367.94;;;15.75;85.71
5126;BME280;63008;53.112;8.896;2023-07-02T04:28:27;100373.47;;;15.75;85.72
5126;BME280;63008;53.112;8.896;2023-07-02T04:30:28;100370.69;;;15.75;85.51
5126;BME280;63008;53.112;8.896;2023-07-02T04:32:29;100372.28;;;15.76;85.48
5126;BME280;63008;53.112;8.896;2023-07-02T04:34:30;100367.56;;;15.76;85.00
5126;BME280;63008;53.112;8.896;2023-07-02T04:36:31;100369.97;;;15.81;85.02
5126;BME280;63008;53.112;8.896;2023-07-02T04:38:32;100372.34;;;15.83;84.54
5126;BME280;63008;53.112;8.896;2023-07-02T04:40:33;100371.56;;;15.82;85.13
5126;BME280;63008;53.112;8.896;2023-07-02T04:42:35;100379.88;;;15.82;84.88
5126;BME280;63008;53.112;8.896;2023-07-02T04:44:38;100364.50;;;15.85;85.00
5126;BME280;63008;53.112;8.896;2023-07-02T04:46:39;100364.56;;;15.92;84.69
5126;BME280;63008;53.112;8.896;2023-07-02T04:48:40;100364.56;;;15.92;84.45
5126;BME280;63008;53.112;8.896;2023-07-02T04:50:41;100363.75;;;15.91;84.57
5126;BME280;63008;53.112;8.896;2023-07-02T04:52:42;100368.94;;;15.93;83.96
5126;BME280;63008;53.112;8.896;2023-07-02T04:54:43;100380.81;;;15.97;83.98
5126;BME280;63008;53.112;8.896;2023-07-02T04:56:44;100366.22;;;15.96;83.85
5126;BME280;63008;53.112;8.896;2023-07-02T04:58:45;100372.94;;;15.99;84.05
5126;BME280;63008;53.112;8.896;2023-07-02T05:00:46;100376.22;;;16.08;83.36
5126;BME280;63008;53.112;8.896;2023-07-02T05:02:47;100373.78;;;16.03;83.40
5126;BME280;63008;53.112;8.896;2023-07-02T05:04:48;100375.41;;;16.07;83.23
5126;BME280;63008;53.112;8.896;2023-07-02T05:06:49;100373.81;;;16.06;82.62
5126;BME280;63008;53.112;8.896;2023-07-02T05:08:50;100377.03;;;16.12;81.91
5126;BME280;63008;53.112;8.896;2023-07-02T05:10:52;100390.13;;;16.15;82.08
5126;BME280;63008;53.112;8.896;2023-07-02T05:12:53;100379.09;;;16.18;82.13
5126;BME280;63008;53.112;8.896;2023-07-02T05:14:54;100384.63;;;16.18;81.85
5126;BME280;63008;53.112;8.896;2023-07-02T05:16:55;100380.69;;;16.19;81.66
5126;BME280;63008;53.112;8.896;2023-07-02T05:18:56;100392.63;;;16.27;81.81
5126;BME280;63008;53.112;8.896;2023-07-02T05:20:57;100393.03;;;16.29;81.77
5126;BME280;63008;53.112;8.896;2023-07-02T05:22:58;100395.81;;;16.29;79.97
5126;BME280;63008;53.112;8.896;2023-07-02T05:24:59;100398.59;;;16.29;80.09
5126;BME280;63008;53.112;8.896;2023-07-02T05:27:00;100396.22;;;16.31;79.83
5126;BME280;63008;53.112;8.896;2023-07-02T05:29:01;100400.66;;;16.35;80.19
5126;BME280;63008;53.112;8.896;2023-07-02T05:31:02;100398.66;;;16.36;79.72
5126;BME280;63008;53.112;8.896;2023-07-02T05:33:03;100406.25;;;16.39;80.11
5126;BME280;63008;53.112;8.896;2023-07-02T05:35:04;100399.13;;;16.38;79.36
5126;BME280;63008;53.112;8.896;2023-07-02T05:37:05;100401.53;;;16.43;79.32
5126;BME280;63008;53.112;8.896;2023-07-02T05:39:06;100403.94;;;16.48;79.50
5126;BME280;63008;53.112;8.896;2023-07-02T05:41:07;100398.81;;;16.50;78.57
5126;BME280;63008;53.112;8.896;2023-07-02T05:43:08;100394.44;;;16.49;77.97
5126;BME280;63008;53.112;8.896;2023-07-02T05:45:10;100395.25;;;16.49;78.83
5126;BME280;63008;53.112;8.896;2023-07-02T05:47:11;100398.50;;;16.58;78.11
5126;BME280;63008;53.112;8.896;2023-07-02T05:49:14;100402.84;;;16.56;77.88
5126;BME280;63008;53.112;8.896;2023-07-02T05:51:25;100404.44;;;16.57;77.69
5126;BME280;63008;53.112;8.896;2023-07-02T05:53:25;100408.78;;;16.58;78.08
5126;BME280;63008;53.112;8.896;2023-07-02T05:55:26;100401.69;;;16.60;77.66
5126;BME280;63008;53.112;8.896;2023-07-02T05:57:27;100401.31;;;16.61;77.38
5126;BME280;63008;53.112;8.896;2023-07-02T05:59:28;100398.97;;;16.67;77.51
5126;BME280;63008;53.112;8.896;2023-07-02T06:01:29;100402.56;;;16.71;77.31
5126;BME280;63008;53.112;8.896;2023-07-02T06:03:30;100413.72;;;16.78;77.46
5126;BME280;63008;53.112;8.896;2023-07-02T06:05:31;100410.56;;;16.79;76.66
5126;BME280;63008;53.112;8.896;2023-07-02T06:07:32;100408.22;;;16.81;76.48
5126;BME280;63008;53.112;8.896;2023-07-02T06:09:33;100409.03;;;16.85;76.41
5126;BME280;63008;53.112;8.896;2023-07-02T06:11:34;100410.63;;;16.86;76.79
5126;BME280;63008;53.112;8.896;2023-07-02T06:13:35;100410.25;;;16.88;75.96
5126;BME280;63008;53.112;8.896;2023-07-02T06:15:36;100407.88;;;16.90;75.74
5126;BME280;63008;53.112;8.896;2023-07-02T06:17:37;100409.91;;;16.96;75.67
5126;BME280;63008;53.112;8.896;2023-07-02T06:19:38;100409.50;;;16.94;74.35
5126;BME280;63008;53.112;8.896;2023-07-02T06:21:39;100413.47;;;16.97;74.25
5126;BME280;63008;53.112;8.896;2023-07-02T06:23:41;100415.50;;;17.03;74.67
5126;BME280;63008;53.112;8.896;2023-07-02T06:25:42;100406.84;;;17.08;73.69
5126;BME280;63008;53.112;8.896;2023-07-02T06:27:43;100413.53;;;17.04;72.21
5126;BME280;63008;53.112;8.896;2023-07-02T06:29:44;100421.84;;;17.04;72.22
5126;BME280;63008;53.112;8.896;2023-07-02T06:31:45;100418.34;;;17.10;72.29
5126;BME280;63008;53.112;8.896;2023-07-02T06:33:46;100422.72;;;17.15;71.97
5126;BME280;63008;53.112;8.896;2023-07-02T06:35:48;100413.66;;;17.21;70.76
5126;BME280;63008;53.112;8.896;2023-07-02T06:37:49;100421.22;;;17.28;71.01
5126;BME280;63008;53.112;8.896;2023-07-02T06:39:50;100431.53;;;17.31;70.74
5126;BME280;63008;53.112;8.896;2023-07-02T06:41:51;100432.75;;;17.33;71.22
5126;BME280;63008;53.112;8.896;2023-07-02T06:43:52;100448.28;;;17.38;69.46
5126;BME280;63008;53.112;8.896;2023-07-02T06:45:53;100442.34;;;17.36;69.66
5126;BME280;63008;53.112;8.896;2023-07-02T06:47:54;100456.97;;;17.36;68.83
5126;BME280;63008;53.112;8.896;2023-07-02T06:49:55;100453.09;;;17.48;68.73
5126;BME280;63008;53.112;8.896;2023-07-02T06:51:56;100448.78;;;17.57;69.17
5126;BME280;63008;53.112;8.896;2023-07-02T06:53:57;100454.81;;;17.73;69.03
5126;BME280;63008;53.112;8.896;2023-07-02T06:55:58;100448.88;;;17.71;68.96
5126;BME280;63008;53.112;8.896;2023-07-02T06:57:59;100465.97;;;17.77;68.96
5126;BME280;63008;53.112;8.896;2023-07-02T07:00:00;100458.78;;;17.72;68.12
5126;BME280;63008;53.112;8.896;2023-07-02T07:02:02;100458.75;;;17.69;67.88
5126;BME280;63008;53.112;8.896;2023-07-02T07:04:03;100455.59;;;17.63;67.12
5126;BME280;63008;53.112;8.896;2023-07-02T07:06:04;100455.19;;;17.65;67.88
5126;BME280;63008;53.112;8.896;2023-07-02T07:08:05;100465.97;;;17.77;67.26
5126;BME280;63008;53.112;8.896;2023-07-02T07:10:06;100469.59;;;17.88;66.79
5126;BME280;63008;53.112;8.896;2023-07-02T07:12:08;100464.84;;;17.92;67.28
5126;BME280;63008;53.112;8.896;2023-07-02T07:14:09;100470.81;;;17.94;65.78
5126;BME280;63008;53.112;8.896;2023-07-02T07:16:11;100458.47;;;17.84;64.54
5126;BME280;63008;53.112;8.896;2023-07-02T07:18:12;100478.69;;;17.85;65.37
5126;BME280;63008;53.112;8.896;2023-07-02T07:20:13;100466.81;;;17.88;65.32
5126;BME280;63008;53.112;8.896;2023-07-02T07:22:14;100471.97;;;17.89;62.48
5126;BME280;63008;53.112;8.896;2023-07-02T07:24:15;100466.03;;;17.94;64.33
5126;BME280;63008;53.112;8.896;2023-07-02T07:26:16;100478.75;;;17.99;63.57
5126;BME280;63008;53.112;8.896;2023-07-02T07:28:17;100483.94;;;18.04;64.38
5126;BME280;63008;53.112;8.896;2023-07-02T07:30:19;100472.81;;;18.04;64.30
5126;BME280;63008;53.112;8.896;2023-07-02T07:32:23;100475.59;;;18.04;63.29
5126;BME280;63008;53.112;8.896;2023-07-02T07:34:24;100483.91;;;17.97;61.98
5126;BME280;63008;53.112;8.896;2023-07-02T07:36:25;100467.66;;;17.99;62.95
5126;BME280;63008;53.112;8.896;2023-07-02T07:38:26;100473.59;;;18.01;62.58
5126;BME280;63008;53.112;8.896;2023-07-02T07:40:27;100496.25;;;18.06;62.26
5126;BME280;63008;53.112;8.896;2023-07-02T07:42:28;100482.00;;;18.15;60.46
5126;BME280;63008;53.112;8.896;2023-07-02T07:44:29;100472.94;;;18.28;59.78
5126;BME280;63008;53.112;8.896;2023-07-02T07:46:29;100519.03;;;18.36;59.06
5126;BME280;63008;53.112;8.896;2023-07-02T07:48:31;100484.00;;;18.21;58.99
5126;BME280;63008;53.112;8.896;2023-07-02T07:50:32;100493.59;;;18.27;58.40
5126;BME280;63008;53.112;8.896;2023-07-02T07:52:33;100483.63;;;18.26;57.66
5126;BME280;63008;53.112;8.896;2023-07-02T07:54:34;100497.19;;;18.35;59.73
5126;BME280;63008;53.112;8.896;2023-07-02T07:56:37;100496.41;;;18.38;59.14
5126;BME280;63008;53.112;8.896;2023-07-02T07:58:38;100487.66;;;18.36;58.97
5126;BME280;63008;53.112;8.896;2023-07-02T08:00:39;100490.81;;;18.31;58.51
5126;BME280;63008;53.112;8.896;2023-07-02T08:02:40;100501.16;;;18.34;58.36
5126;BME280;63008;53.112;8.896;2023-07-02T08:04:41;100509.53;;;18.48;58.49
5126;BME280;63008;53.112;8.896;2023-07-02T08:06:42;100511.56;;;18.54;58.76
5126;BME280;63008;53.112;8.896;2023-07-02T08:08:43;100507.19;;;18.53;58.13
5126;BME280;63008;53.112;8.896;2023-07-02T08:10:44;100513.16;;;18.55;58.68
5126;BME280;63008;53.112;8.896;2023-07-02T08:12:46;100509.97;;;18.53;56.77
5126;BME280;63008;53.112;8.896;2023-07-02T08:14:49;100523.41;;;18.44;57.60
5126;BME280;63008;53.112;8.896;2023-07-02T08:16:51;100514.25;;;18.30;57.29
5126;BME280;63008;53.112;8.896;2023-07-02T08:18:52;100516.31;;;18.50;58.38
5126;BME280;63008;53.112;8.896;2023-07-02T08:20:53;100511.53;;;18.57;56.66
5126;BME280;63008;53.112;8.896;2023-07-02T08:22:54;100514.31;;;18.50;56.00
5126;BME280;63008;53.112;8.896;2023-07-02T08:24:55;100526.22;;;18.54;55.04
5126;BME280;63008;53.112;8.896;2023-07-02T08:26:56;100518.66;;;18.48;55.62
5126;BME280;63008;53.112;8.896;2023-07-02T08:28:57;100519.09;;;18.57;56.29
5126;BME280;63008;53.112;8.896;2023-07-02T08:30:58;100515.97;;;18.69;56.09
5126;BME280;63008;53.112;8.896;2023-07-02T08:33:00;100521.53;;;18.83;56.23
5126;BME280;63008;53.112;8.896;2023-07-02T08:35:01;100520.41;;;19.05;56.24
5126;BME280;63008;53.112;8.896;2023-07-02T08:37:02;100520.38;;;19.01;54.84
5126;BME280;63008;53.112;8.896;2023-07-02T08:39:03;100524.75;;;18.95;55.47
5126;BME280;63008;53.112;8.896;2023-07-02T08:41:05;100532.69;;;18.86;55.88
5126;BME280;63008;53.112;8.896;2023-07-02T08:43:06;100522.72;;;18.75;54.99
5126;BME280;63008;53.112;8.896;2023-07-02T08:45:07;100523.13;;;18.84;54.86
5126;BME280;63008;53.112;8.896;2023-07-02T08:47:09;100539.03;;;18.90;54.37
5126;BME280;63008;53.112;8.896;2023-07-02T08:49:10;100526.75;;;19.02;53.88
5126;BME280;63008;53.112;8.896;2023-07-02T08:51:11;100529.13;;;19.07;54.27
5126;BME280;63008;53.112;8.896;2023-07-02T08:53:12;100524.00;;;19.19;53.88
5126;BME280;63008;53.112;8.896;2023-07-02T08:55:13;100525.97;;;19.43;54.52
5126;BME280;63008;53.112;8.896;2023-07-02T08:57:14;100533.13;;;19.72;53.79
5126;BME280;63008;53.112;8.896;2023-07-02T08:59:15;100531.50;;;19.89;55.44
5126;BME280;63008;53.112;8.896;2023-07-02T09:01:16;100540.63;;;20.07;53.08
5126;BME280;63008;53.112;8.896;2023-07-02T09:03:17;100542.97;;;20.19;52.50
5126;BME280;63008;53.112;8.896;2023-07-02T09:05:18;100542.97;;;20.26;50.37
5126;BME280;63008;53.112;8.896;2023-07-02T09:07:19;100541.00;;;19.98;51.15
5126;BME280;63008;53.112;8.896;2023-07-02T09:09:20;100536.69;;;19.83;51.29
5126;BME280;63008;53.112;8.896;2023-07-02T09:11:21;100548.22;;;19.82;52.61
5126;BME280;63008;53.112;8.896;2023-07-02T09:13:22;100563.38;;;19.74;53.52
5126;BME280;63008;53.112;8.896;2023-07-02T09:15:23;100547.84;;;19.52;52.39
5126;BME280;63008;53.112;8.896;2023-07-02T09:17:34;100560.19;;;19.61;52.73
5126;BME280;63008;53.112;8.896;2023-07-02T09:19:36;100558.22;;;19.65;52.91
5126;BME280;63008;53.112;8.896;2023-07-02T09:21:48;100564.16;;;19.71;53.98
5126;BME280;63008;53.112;8.896;2023-07-02T09:23:49;100564.53;;;19.90;53.03
5126;BME280;63008;53.112;8.896;2023-07-02T09:25:50;100562.13;;;19.99;53.81
5126;BME280;63008;53.112;8.896;2023-07-02T09:27:51;100555.75;;;20.09;53.26
5126;BME280;63008;53.112;8.896;2023-07-02T09:29:52;100553.38;;;20.08;53.56
5126;BME280;63008;53.112;8.896;2023-07-02T09:31:53;100564.13;;;19.95;54.39
5126;BME280;63008;53.112;8.896;2023-07-02T09:34:01;100582.00;;;20.15;53.85
5126;BME280;63008;53.112;8.896;2023-07-02T09:36:02;100571.25;;;20.24;52.92
5126;BME280;63008;53.112;8.896;2023-07-02T09:38:03;100572.44;;;20.16;52.65
5126;BME280;63008;53.112;8.896;2023-07-02T09:40:06;100572.03;;;20.35;52.01
5126;BME280;63008;53.112;8.896;2023-07-02T09:42:09;100569.63;;;20.37;51.88
5126;BME280;63008;53.112;8.896;2023-07-02T09:44:11;100577.56;;;20.45;51.34
5126;BME280;63008;53.112;8.896;2023-07-02T09:46:13;100572.19;;;20.82;51.22
5126;BME280;63008;53.112;8.896;2023-07-02T09:48:15;100565.38;;;20.97;49.15
5126;BME280;63008;53.112;8.896;2023-07-02T09:50:17;100570.06;;;21.07;48.17
5126;BME280;63008;53.112;8.896;2023-07-02T09:52:19;100561.25;;;21.12;48.31
5126;BME280;63008;53.112;8.896;2023-07-02T09:54:20;100571.91;;;21.31;49.47
5126;BME280;63008;53.112;8.896;2023-07-02T09:56:21;100581.34;;;21.48;49.05
5126;BME280;63008;53.112;8.896;2023-07-02T09:58:22;100574.91;;;21.54;47.75
5126;BME280;63008;53.112;8.896;2023-07-02T10:00:23;100573.06;;;21.37;49.32
5126;BME280;63008;53.112;8.896;2023-07-02T10:02:24;100572.59;;;21.90;47.20
5126;BME280;63008;53.112;8.896;2023-07-02T10:04:25;100561.41;;;21.93;47.83
5126;BME280;63008;53.112;8.896;2023-07-02T10:06:26;100567.50;;;22.18;45.22
5126;BME280;63008;53.112;8.896;2023-07-02T10:08:27;100578.63;;;21.88;44.98
5126;BME280;63008;53.112;8.896;2023-07-02T10:10:31;100573.78;;;21.92;44.70
5126;BME280;63008;53.112;8.896;2023-07-02T10:12:32;100579.00;;;21.90;44.65
5126;BME280;63008;53.112;8.896;2023-07-02T10:14:42;100566.53;;;22.35;44.40
5126;BME280;63008;53.112;8.896;2023-07-02T10:16:51;100562.75;;;23.12;45.49
5126;BME280;63008;53.112;8.896;2023-07-02T10:18:53;100572.94;;;22.95;45.95
5126;BME280;63008;53.112;8.896;2023-07-02T10:20:54;100571.00;;;22.62;45.71
5126;BME280;63008;53.112;8.896;2023-07-02T10:22:55;100560.75;;;22.52;44.66
5126;BME280;63008;53.112;8.896;2023-07-02T10:24:58;100565.75;;;22.68;43.34
5126;BME280;63008;53.112;8.896;2023-07-02T10:27:02;100568.03;;;23.33;42.62
5126;BME280;63008;53.112;8.896;2023-07-02T10:29:03;100560.75;;;23.62;40.93
5126;BME280;63008;53.112;8.896;2023-07-02T10:31:04;100574.91;;;23.78;42.15
5126;BME280;63008;53.112;8.896;2023-07-02T10:33:13;100583.84;;;23.69;42.11
5126;BME280;63008;53.112;8.896;2023-07-02T10:35:15;100589.97;;;22.48;41.47
5126;BME280;63008;53.112;8.896;2023-07-02T10:37:17;100564.81;;;21.71;43.38
5126;BME280;63008;53.112;8.896;2023-07-02T10:39:18;100573.88;;;21.34;44.26
5126;BME280;63008;53.112;8.896;2023-07-02T10:41:27;100587.72;;;20.94;45.11
5126;BME280;63008;53.112;8.896;2023-07-02T10:43:30;100585.81;;;20.70;46.74